Time;durP1;ratioP1;P1;durP2;ratioP2;P2;SDS_P1;SDS_P2;PMS_P1;PMS_P2;Temp;Humidity;BMP_temperature;BMP_pressure;BME280_temperature;BME280_humidity;BME280_pressure;Samples;Min_cycle;Max_cycle;Signal;HPM_P1;HPM_P2
2022/06/27 00:00:07;;;;;;;0.70;0.70;;;;;;;19.31;100.00;95288.75;1030023;28;20026;-72
2022/06/27 00:00:37;;;;;;;1.90;0.60;;;;;;;19.32;100.00;95290.34;1030808;28;20177;-72
2022/06/27 00:01:08;;;;;;;0.93;0.68;;;;;;;19.30;100.00;95295.19;1030082;28;20395;-75
2022/06/27 00:01:38;;;;;;;0.90;0.90;;;;;;;19.28;100.00;95295.53;1033763;28;20058;-70
2022/06/27 00:02:09;;;;;;;1.00;0.90;;;;;;;19.26;100.00;95289.75;1026259;28;20113;-74
2022/06/27 00:02:39;;;;;;;1.83;1.10;;;;;;;19.24;100.00;95293.84;1025858;28;20059;-72
2022/06/27 00:03:10;;;;;;;3.05;0.88;;;;;;;19.21;100.00;95294.50;1030252;28;20022;-71
2022/06/27 00:03:40;;;;;;;1.10;0.90;;;;;;;19.16;100.00;95292.84;1026395;28;20073;-74
2022/06/27 00:04:11;;;;;;;5.88;0.80;;;;;;;19.15;100.00;95288.63;1029995;28;20023;-72
2022/06/27 00:04:41;;;;;;;1.00;0.80;;;;;;;19.15;100.00;95298.47;1021965;28;20501;-72
2022/06/27 00:05:12;;;;;;;1.50;0.70;;;;;;;19.15;100.00;95303.78;1030160;28;20595;-73
2022/06/27 00:05:42;;;;;;;1.60;0.80;;;;;;;19.15;100.00;95298.47;1034169;28;20116;-72
2022/06/27 00:06:13;;;;;;;1.60;0.70;;;;;;;19.18;100.00;95297.81;1030553;28;20026;-73
2022/06/27 00:06:44;;;;;;;0.80;0.80;;;;;;;19.17;100.00;95302.34;1022078;28;20534;-73
2022/06/27 00:07:14;;;;;;;0.88;0.70;;;;;;;19.15;100.00;95299.25;1026655;28;20038;-73
2022/06/27 00:07:45;;;;;;;1.05;0.88;;;;;;;19.15;100.00;95301.13;1030246;28;20474;-73
2022/06/27 00:08:15;;;;;;;3.38;1.25;;;;;;;19.17;100.00;95302.34;1038064;28;20021;-72
2022/06/27 00:08:47;;;;;;;1.65;0.77;;;;;;;19.18;100.00;95297.81;1033957;28;20057;-74
2022/06/27 00:09:18;;;;;;;3.00;0.82;;;;;;;19.20;100.00;95300.94;1026975;28;20539;-73
2022/06/27 00:09:49;;;;;;;3.65;0.93;;;;;;;19.20;100.00;95295.63;1022096;29;20020;-73
2022/06/27 00:10:19;;;;;;;2.25;0.88;;;;;;;19.20;100.00;95300.94;1027350;28;20085;-72
2022/06/27 00:10:49;;;;;;;1.33;0.70;;;;;;;19.21;100.00;95303.25;1033799;28;20030;-72
2022/06/27 00:11:20;;;;;;;1.70;0.80;;;;;;;19.22;100.00;95309.38;1035142;28;20117;-73
2022/06/27 00:11:51;;;;;;;2.05;0.95;;;;;;;19.22;100.00;95312.81;1037318;28;20013;-72
2022/06/27 00:12:21;;;;;;;1.63;0.75;;;;;;;19.18;100.00;95309.25;1034183;28;20057;-72
2022/06/27 00:12:52;;;;;;;0.88;0.63;;;;;;;19.19;100.00;95310.81;1034035;28;20065;-73
2022/06/27 00:13:22;;;;;;;1.50;0.68;;;;;;;19.20;100.00;95316.91;1030388;28;20026;-74
2022/06/27 00:13:53;;;;;;;0.70;0.70;;;;;;;19.18;100.00;95324.41;1022152;29;20070;-72
2022/06/27 00:14:23;;;;;;;2.35;0.90;;;;;;;19.19;100.00;95326.00;1021938;29;20032;-72
2022/06/27 00:14:54;;;;;;;0.65;0.60;;;;;;;19.17;100.00;95323.63;1030080;28;20728;-73
2022/06/27 00:15:24;;;;;;;2.78;1.15;;;;;;;19.16;100.00;95322.09;1038524;28;20022;-73
2022/06/27 00:15:54;;;;;;;1.08;0.90;;;;;;;19.18;100.00;95329.72;1038283;28;20049;-72
2022/06/27 00:16:25;;;;;;;1.38;0.80;;;;;;;19.17;100.00;95328.97;1038174;28;20033;-72
2022/06/27 00:16:55;;;;;;;3.03;0.75;;;;;;;19.14;100.00;95326.94;1038265;28;20056;-73
2022/06/27 00:17:29;;;;;;;0.70;0.60;;;;;;;19.13;100.00;95317.44;1034264;28;20079;-72
2022/06/27 00:17:59;;;;;;;0.65;0.65;;;;;;;19.14;100.00;95323.50;1033929;28;20022;-73
2022/06/27 00:18:30;;;;;;;2.03;0.80;;;;;;;19.14;100.00;95318.19;1033915;28;20022;-73
2022/06/27 00:19:00;;;;;;;1.45;0.63;;;;;;;19.14;100.00;95318.19;1035024;28;20113;-72
2022/06/27 00:19:31;;;;;;;1.58;0.82;;;;;;;19.14;100.00;95318.19;1042669;28;20037;-73
2022/06/27 00:20:02;;;;;;;1.77;0.90;;;;;;;19.16;100.00;95318.66;1038253;28;20808;-72
2022/06/27 00:20:32;;;;;;;1.50;0.80;;;;;;;19.16;100.00;95321.31;1034378;28;20045;-71
2022/06/27 00:21:03;;;;;;;2.40;0.65;;;;;;;19.16;100.00;95323.97;1030099;28;20026;-71
2022/06/27 00:21:33;;;;;;;1.73;0.77;;;;;;;19.16;100.00;95316.00;1029014;28;20034;-71
2022/06/27 00:22:04;;;;;;;2.10;1.10;;;;;;;19.14;100.00;95326.19;1029323;28;20354;-73
2022/06/27 00:22:35;;;;;;;1.60;0.70;;;;;;;19.15;100.00;95322.41;1026041;28;20569;-74
2022/06/27 00:23:05;;;;;;;0.63;0.63;;;;;;;19.14;100.00;95323.50;1018209;29;20149;-74
2022/06/27 00:23:36;;;;;;;1.38;0.88;;;;;;;19.12;100.00;95320.44;1027730;28;20041;-73
2022/06/27 00:24:06;;;;;;;1.05;0.82;;;;;;;19.12;100.00;95321.19;1022114;28;20645;-72
2022/06/27 00:24:37;;;;;;;0.82;0.82;;;;;;;19.12;100.00;95325.75;1032681;28;20116;-73
2022/06/27 00:25:08;;;;;;;2.47;0.85;;;;;;;19.12;100.00;95325.75;1034170;28;20057;-72
2022/06/27 00:25:38;;;;;;;1.20;0.98;;;;;;;19.14;100.00;95328.84;1030090;28;20026;-71
2022/06/27 00:26:09;;;;;;;0.85;0.60;;;;;;;19.12;100.00;95331.06;1038157;28;20021;-75
2022/06/27 00:26:39;;;;;;;0.70;0.70;;;;;;;19.13;100.00;95337.94;1038156;28;20624;-74
2022/06/27 00:27:10;;;;;;;0.77;0.77;;;;;;;19.11;100.00;95334.81;1038224;28;20029;-73
2022/06/27 00:27:41;;;;;;;0.90;0.70;;;;;;;19.08;100.00;95341.56;1042043;28;20017;-75
2022/06/27 00:28:11;;;;;;;1.58;0.70;;;;;;;19.08;100.00;95341.56;1030071;28;20022;-73
2022/06/27 00:28:42;;;;;;;1.13;0.77;;;;;;;19.07;100.00;95345.31;1030100;28;20030;-72
2022/06/27 00:29:12;;;;;;;2.33;0.70;;;;;;;19.07;100.00;95350.63;1030613;28;20493;-73
2022/06/27 00:29:43;;;;;;;1.13;1.00;;;;;;;19.06;100.00;95339.22;1034158;28;20096;-72
2022/06/27 00:30:13;;;;;;;1.13;0.73;;;;;;;19.05;100.00;95350.22;1034027;28;20652;-72
2022/06/27 00:30:44;;;;;;;0.60;0.47;;;;;;;19.02;100.00;95354.28;1038348;28;20016;-73
2022/06/27 00:31:14;;;;;;;0.77;0.77;;;;;;;19.02;100.00;95354.28;1038378;28;20027;-72
2022/06/27 00:31:45;;;;;;;1.80;0.77;;;;;;;19.06;100.00;95347.22;1033523;28;20203;-70
2022/06/27 00:32:16;;;;;;;2.25;1.05;;;;;;;19.05;100.00;95348.31;1033782;28;20066;-74
2022/06/27 00:32:48;;;;;;;1.33;0.95;;;;;;;19.05;100.00;95342.22;1034063;28;20036;-74
2022/06/27 00:33:18;;;;;;;4.22;0.90;;;;;;;19.05;100.00;95352.88;1034012;28;20021;-73
2022/06/27 00:33:48;;;;;;;2.63;0.90;;;;;;;19.05;100.00;95343.00;1017855;29;20027;-73
2022/06/27 00:34:19;;;;;;;1.20;0.65;;;;;;;19.04;100.00;95341.44;1026088;28;20026;-73
2022/06/27 00:34:50;;;;;;;1.55;0.63;;;;;;;19.05;100.00;95343.00;1026375;28;20031;-71
2022/06/27 00:35:20;;;;;;;4.32;1.00;;;;;;;19.06;100.00;95349.09;1032851;28;20026;-72
2022/06/27 00:35:53;;;;;;;1.65;1.15;;;;;;;19.05;100.00;95356.28;1030565;28;20026;-73
2022/06/27 00:36:23;;;;;;;3.42;0.90;;;;;;;19.05;100.00;95352.88;1030661;28;20077;-73
2022/06/27 00:36:54;;;;;;;0.70;0.70;;;;;;;19.05;100.00;95353.63;1026661;28;20500;-73
2022/06/27 00:37:24;;;;;;;1.27;0.80;;;;;;;19.07;100.00;95351.41;1020080;29;20420;-72
2022/06/27 00:37:55;;;;;;;3.83;0.85;;;;;;;19.10;100.00;95354.53;1022396;29;20016;-73
2022/06/27 00:38:25;;;;;;;0.70;0.70;;;;;;;19.08;100.00;95354.88;1023844;28;20023;-73
2022/06/27 00:38:56;;;;;;;1.55;1.00;;;;;;;19.04;100.00;95351.28;1025620;28;20019;-74
2022/06/27 00:39:26;;;;;;;5.07;0.98;;;;;;;19.03;100.00;95353.19;1019801;29;20053;-72
2022/06/27 00:39:57;;;;;;;4.20;0.88;;;;;;;19.05;100.00;95352.88;1021302;28;20063;-72
2022/06/27 00:40:27;;;;;;;2.17;1.00;;;;;;;19.05;100.00;95345.66;1030656;28;20018;-75
2022/06/27 00:40:58;;;;;;;1.25;0.80;;;;;;;19.03;100.00;95345.19;1026467;28;20027;-71
2022/06/27 00:41:28;;;;;;;2.70;0.88;;;;;;;19.03;100.00;95349.75;1026773;28;20059;-72
2022/06/27 00:41:58;;;;;;;1.30;1.08;;;;;;;19.00;100.00;95345.84;1025569;28;20054;-75
2022/06/27 00:42:29;;;;;;;2.30;0.70;;;;;;;18.97;100.00;95341.19;1031256;28;20049;-73
2022/06/27 00:43:00;;;;;;;3.85;1.00;;;;;;;18.97;100.00;95343.84;1034826;28;20022;-73
2022/06/27 00:43:30;;;;;;;1.42;0.90;;;;;;;18.96;100.00;95357.47;1021117;29;20020;-73
2022/06/27 00:44:01;;;;;;;2.15;0.70;;;;;;;18.93;100.00;95345.59;1016674;29;20012;-74
2022/06/27 00:44:32;;;;;;;0.60;0.60;;;;;;;18.94;100.00;95349.81;1022789;29;20023;-73
2022/06/27 00:45:04;;;;;;;1.33;0.60;;;;;;;18.93;100.00;95356.22;1026857;28;20023;-75
2022/06/27 00:45:34;;;;;;;3.50;0.70;;;;;;;18.90;100.00;95356.88;1026702;28;20054;-71
2022/06/27 00:46:04;;;;;;;0.88;0.80;;;;;;;18.91;100.00;95353.09;1018944;29;20451;-73
2022/06/27 00:46:35;;;;;;;1.48;0.95;;;;;;;18.92;100.00;95359.22;1021840;29;20035;-74
2022/06/27 00:47:07;;;;;;;0.98;0.80;;;;;;;18.89;100.00;95360.66;1026819;28;20047;-73
2022/06/27 00:47:37;;;;;;;1.85;0.93;;;;;;;18.86;100.00;95358.63;1031268;28;20019;-72
2022/06/27 00:48:08;;;;;;;2.30;0.73;;;;;;;18.86;100.00;95358.63;1030611;28;20032;-74
2022/06/27 00:48:38;;;;;;;2.88;0.90;;;;;;;18.84;100.00;95363.50;1034653;28;20022;-73
2022/06/27 00:49:09;;;;;;;2.28;0.70;;;;;;;18.82;100.00;95368.38;1030741;28;20985;-73
2022/06/27 00:49:39;;;;;;;1.20;0.65;;;;;;;18.81;100.00;95364.94;1030869;28;20018;-72
2022/06/27 00:50:10;;;;;;;3.95;0.95;;;;;;;18.81;100.00;95369.44;1034605;28;20512;-75
2022/06/27 00:50:40;;;;;;;0.95;0.95;;;;;;;18.80;100.00;95373.22;1039235;28;20045;-72
2022/06/27 00:51:11;;;;;;;0.70;0.70;;;;;;;18.79;100.00;95371.66;1034797;28;20045;-74
2022/06/27 00:51:41;;;;;;;1.02;0.80;;;;;;;18.75;100.00;95370.78;1029952;28;20029;-72
2022/06/27 00:52:12;;;;;;;1.13;0.80;;;;;;;18.74;100.00;95375.28;1022827;28;20061;-75
2022/06/27 00:52:43;;;;;;;0.80;0.80;;;;;;;18.77;100.00;95371.19;1030324;28;20022;-73
2022/06/27 00:53:13;;;;;;;2.25;0.80;;;;;;;18.76;100.00;95378.41;1030743;28;20018;-71
2022/06/27 00:53:44;;;;;;;1.15;0.80;;;;;;;18.74;100.00;95374.50;1029391;28;20417;-73
2022/06/27 00:54:14;;;;;;;2.63;1.23;;;;;;;18.75;100.00;95374.19;1027206;28;20026;-73
2022/06/27 00:54:46;;;;;;;3.00;0.90;;;;;;;18.73;100.00;95373.72;1030614;28;20049;-73
2022/06/27 00:55:17;;;;;;;2.40;0.77;;;;;;;18.72;100.00;95377.50;1030584;28;20023;-73
2022/06/27 00:55:47;;;;;;;1.58;0.88;;;;;;;18.70;100.00;95376.22;1035018;28;20026;-73
2022/06/27 00:56:18;;;;;;;1.98;0.80;;;;;;;18.69;100.00;95372.03;1023144;28;20114;-73
2022/06/27 00:56:49;;;;;;;1.40;0.95;;;;;;;18.69;100.00;95387.97;1034669;28;20103;-73
2022/06/27 00:57:19;;;;;;;0.80;0.80;;;;;;;18.68;100.00;95381.88;1033783;28;20496;-74
2022/06/27 00:57:50;;;;;;;2.15;0.90;;;;;;;18.69;100.00;95387.97;1028866;28;20086;-74
2022/06/27 00:58:21;;;;;;;1.27;0.82;;;;;;;18.64;100.00;95388.91;1026764;28;20837;-74
2022/06/27 00:58:51;;;;;;;2.03;0.80;;;;;;;18.68;100.00;95386.41;1026827;28;20030;-74
2022/06/27 00:59:22;;;;;;;1.63;1.20;;;;;;;18.66;100.00;95392.03;1027701;28;20019;-73
2022/06/27 00:59:52;;;;;;;3.22;0.93;;;;;;;18.66;100.00;95391.28;1034802;28;20028;-73
2022/06/27 01:00:23;;;;;;;1.77;1.00;;;;;;;18.64;100.00;95394.22;1034757;28;20131;-73
2022/06/27 01:00:53;;;;;;;1.10;1.00;;;;;;;18.64;100.00;95396.13;1034707;28;20018;-74
2022/06/27 01:01:24;;;;;;;1.63;0.90;;;;;;;18.63;100.00;95398.00;1030520;28;20006;-75
2022/06/27 01:01:54;;;;;;;0.80;0.80;;;;;;;18.60;100.00;95396.75;1026143;28;20086;-72
2022/06/27 01:02:25;;;;;;;0.70;0.70;;;;;;;18.61;100.00;95398.34;1026372;28;20050;-74
2022/06/27 01:02:55;;;;;;;3.83;0.95;;;;;;;18.61;100.00;95401.00;1034606;28;20392;-75
2022/06/27 01:03:26;;;;;;;1.50;0.90;;;;;;;18.61;100.00;95408.16;1034715;28;20491;-73
2022/06/27 01:04:00;;;;;;;1.33;1.08;;;;;;;18.63;100.00;95405.19;1026745;28;20027;-74
2022/06/27 01:04:31;;;;;;;2.38;1.00;;;;;;;18.61;100.00;95408.97;1030467;28;20029;-73
2022/06/27 01:05:01;;;;;;;3.95;1.05;;;;;;;18.63;100.00;95410.50;1026481;28;20509;-73
2022/06/27 01:05:32;;;;;;;1.10;1.00;;;;;;;18.65;100.00;95405.66;1033330;28;20060;-73
2022/06/27 01:06:03;;;;;;;0.90;0.80;;;;;;;18.65;100.00;95405.66;1033288;28;20049;-73
2022/06/27 01:06:34;;;;;;;1.63;1.00;;;;;;;18.63;100.00;95399.88;1034725;28;20072;-73
2022/06/27 01:07:08;;;;;;;1.50;0.65;;;;;;;18.64;100.00;95404.09;1026524;28;20023;-74
2022/06/27 01:07:38;;;;;;;1.15;0.80;;;;;;;18.64;100.00;95406.75;1034342;28;20042;-73
2022/06/27 01:08:09;;;;;;;3.35;1.00;;;;;;;18.62;100.00;95404.44;1034642;28;20071;-73
2022/06/27 01:08:39;;;;;;;2.42;0.80;;;;;;;18.64;100.00;95409.41;1036179;28;20022;-73
2022/06/27 01:09:10;;;;;;;3.97;1.05;;;;;;;18.61;100.00;95408.97;1038319;28;20055;-73
2022/06/27 01:09:41;;;;;;;1.00;0.88;;;;;;;18.61;100.00;95414.28;1033924;28;20424;-74
2022/06/27 01:10:11;;;;;;;1.13;0.90;;;;;;;18.60;100.00;95423.34;1022576;29;20028;-72
2022/06/27 01:10:42;;;;;;;2.08;0.82;;;;;;;18.59;100.00;95413.81;1022033;29;20051;-74
2022/06/27 01:11:13;;;;;;;2.20;0.80;;;;;;;18.60;100.00;95418.03;1027027;28;20062;-74
2022/06/27 01:11:43;;;;;;;2.10;0.98;;;;;;;18.60;100.00;95417.25;1030042;28;20028;-73
2022/06/27 01:12:14;;;;;;;2.47;0.70;;;;;;;18.58;100.00;95425.56;1036070;28;20032;-71
2022/06/27 01:12:44;;;;;;;1.10;1.00;;;;;;;18.58;100.00;95425.56;1026645;28;20042;-73
2022/06/27 01:13:15;;;;;;;3.25;1.00;;;;;;;18.58;100.00;95419.47;1018752;29;20011;-73
2022/06/27 01:13:45;;;;;;;1.45;0.60;;;;;;;18.58;100.00;95433.53;1014754;29;20013;-72
2022/06/27 01:14:17;;;;;;;0.88;0.70;;;;;;;18.59;100.00;95432.41;1026971;28;20327;-71
2022/06/27 01:14:47;;;;;;;1.15;0.90;;;;;;;18.59;100.00;95431.66;1030615;28;20022;-72
2022/06/27 01:15:18;;;;;;;1.98;0.98;;;;;;;18.60;100.00;95428.66;1023608;28;20027;-72
2022/06/27 01:15:48;;;;;;;1.40;0.80;;;;;;;18.64;100.00;95428.00;1032923;28;20049;-71
2022/06/27 01:16:19;;;;;;;1.05;0.90;;;;;;;18.65;100.00;95424.28;1027560;28;20058;-73
2022/06/27 01:16:49;;;;;;;3.13;0.90;;;;;;;18.65;100.00;95430.38;1026530;28;20093;-73
2022/06/27 01:17:20;;;;;;;1.75;1.08;;;;;;;18.68;100.00;95428.91;1026264;28;20098;-73
2022/06/27 01:17:51;;;;;;;1.58;1.10;;;;;;;18.65;100.00;95432.25;1030353;28;20021;-73
2022/06/27 01:18:21;;;;;;;2.00;1.02;;;;;;;18.70;100.00;95434.69;1024241;28;20509;-74
2022/06/27 01:18:52;;;;;;;0.80;0.80;;;;;;;18.68;100.00;95434.22;1024654;28;20051;-72
2022/06/27 01:19:22;;;;;;;1.75;1.00;;;;;;;18.69;100.00;95441.13;1023694;28;20015;-75
2022/06/27 01:19:53;;;;;;;0.95;0.95;;;;;;;18.67;100.00;95440.66;1030455;28;20477;-72
2022/06/27 01:20:23;;;;;;;1.10;1.00;;;;;;;18.67;100.00;95438.00;1026241;28;20125;-72
2022/06/27 01:20:54;;;;;;;3.75;0.95;;;;;;;18.67;100.00;95432.69;1026507;28;20114;-71
2022/06/27 01:21:25;;;;;;;1.33;0.93;;;;;;;18.69;100.00;95430.50;1032947;28;20109;-72
2022/06/27 01:21:56;;;;;;;2.95;0.90;;;;;;;18.70;100.00;95429.38;1025294;28;20019;-72
2022/06/27 01:22:26;;;;;;;1.55;1.10;;;;;;;18.70;100.00;95426.72;1034534;28;20022;-71
2022/06/27 01:22:57;;;;;;;2.78;0.98;;;;;;;18.70;100.00;95434.69;1030433;28;20117;-73
2022/06/27 01:23:27;;;;;;;1.90;0.90;;;;;;;18.71;100.00;95438.91;1024591;28;20030;-73
2022/06/27 01:23:57;;;;;;;2.50;0.85;;;;;;;18.70;100.00;95446.09;1030336;28;20113;-72
2022/06/27 01:24:28;;;;;;;0.82;0.82;;;;;;;18.69;100.00;95457.84;1018507;29;20059;-74
2022/06/27 01:24:58;;;;;;;2.30;1.20;;;;;;;18.70;100.00;95458.63;1022568;28;20023;-73
2022/06/27 01:25:29;;;;;;;0.95;0.90;;;;;;;18.68;100.00;95450.19;1034437;28;20026;-74
2022/06/27 01:26:00;;;;;;;3.33;1.02;;;;;;;18.68;100.00;95445.66;1033486;28;20105;-73
2022/06/27 01:26:30;;;;;;;2.58;0.90;;;;;;;18.67;100.00;95448.63;1037014;28;20025;-72
2022/06/27 01:27:01;;;;;;;1.13;0.93;;;;;;;18.68;100.00;95434.22;1030386;28;20029;-74
2022/06/27 01:27:31;;;;;;;1.23;0.98;;;;;;;18.68;100.00;95431.56;1030843;28;20142;-73
2022/06/27 01:28:03;;;;;;;2.85;1.00;;;;;;;18.68;100.00;95429.72;1025517;28;20027;-73
2022/06/27 01:28:33;;;;;;;0.88;0.82;;;;;;;18.69;100.00;95431.28;1027197;28;20026;-72
2022/06/27 01:29:04;;;;;;;1.65;0.70;;;;;;;18.68;100.00;95434.22;1026525;28;20128;-73
2022/06/27 01:29:34;;;;;;;4.60;0.93;;;;;;;18.68;100.00;95435.03;1029821;28;20345;-73
2022/06/27 01:30:05;;;;;;;1.10;1.00;;;;;;;18.67;100.00;95436.13;1034349;28;20492;-74
2022/06/27 01:30:36;;;;;;;2.28;1.30;;;;;;;18.68;100.00;95439.56;1034975;28;20026;-74
2022/06/27 01:31:06;;;;;;;0.95;0.93;;;;;;;18.69;100.00;95433.94;1034471;28;20413;-73
2022/06/27 01:31:37;;;;;;;1.17;0.90;;;;;;;18.69;100.00;95435.81;1029911;28;20018;-71
2022/06/27 01:32:07;;;;;;;0.88;0.80;;;;;;;18.69;100.00;95433.16;1023367;28;20023;-72
2022/06/27 01:32:38;;;;;;;1.38;0.80;;;;;;;18.68;100.00;95436.88;1020757;29;20799;-72
2022/06/27 01:33:08;;;;;;;3.33;0.93;;;;;;;18.68;100.00;95431.56;1028288;28;20525;-72
2022/06/27 01:33:39;;;;;;;3.40;1.00;;;;;;;18.69;100.00;95431.28;1034167;28;20030;-75
2022/06/27 01:34:10;;;;;;;2.20;0.98;;;;;;;18.71;100.00;95436.25;1022403;28;20548;-71
2022/06/27 01:34:40;;;;;;;2.53;1.02;;;;;;;18.69;100.00;95441.91;1020871;29;20034;-72
2022/06/27 01:35:10;;;;;;;2.13;1.02;;;;;;;18.68;100.00;95450.19;1034416;28;20022;-73
2022/06/27 01:35:41;;;;;;;1.08;0.85;;;;;;;18.66;100.00;95450.50;1022174;29;20019;-73
2022/06/27 01:37:01;;;;;;;1.63;1.10;;;;;;;18.60;100.00;95443.81;1024800;28;20023;-71
2022/06/27 01:37:32;;;;;;;1.23;1.00;;;;;;;18.59;100.00;95443.03;1037386;28;20050;-72
2022/06/27 01:38:02;;;;;;;2.75;0.85;;;;;;;18.60;100.00;95438.50;1032046;28;20068;-72
2022/06/27 01:38:33;;;;;;;1.45;0.98;;;;;;;18.58;100.00;95441.50;1030613;28;20034;-73
2022/06/27 01:39:03;;;;;;;1.33;0.75;;;;;;;18.57;100.00;95445.22;1026078;28;20616;-75
2022/06/27 01:39:34;;;;;;;1.67;1.00;;;;;;;18.53;100.00;95449.63;1030454;28;20057;-72
2022/06/27 01:40:05;;;;;;;2.88;1.00;;;;;;;18.52;100.00;95456.06;1026608;28;20023;-72
2022/06/27 01:40:35;;;;;;;4.03;0.85;;;;;;;18.50;100.00;95457.47;1028175;28;20140;-73
2022/06/27 01:41:06;;;;;;;4.22;1.02;;;;;;;18.49;100.00;95464.66;1038626;28;20009;-72
2022/06/27 01:41:47;;;;;;;0.60;0.60;;;;;;;18.49;100.00;95462.00;1038215;28;20021;-73
2022/06/27 01:42:18;;;;;;;2.55;0.93;;;;;;;18.46;100.00;95465.31;1027529;28;20050;-72
2022/06/27 01:42:48;;;;;;;1.48;1.00;;;;;;;18.43;100.00;95457.97;1032989;28;20014;-71
2022/06/27 01:43:19;;;;;;;1.33;0.80;;;;;;;18.42;100.00;95463.63;1029107;28;20023;-72
2022/06/27 01:43:49;;;;;;;0.80;0.80;;;;;;;18.39;100.00;95459.72;1030100;28;20025;-72
2022/06/27 01:44:23;;;;;;;0.80;0.80;;;;;;;18.38;100.00;95463.47;1027133;28;20117;-74
2022/06/27 01:44:53;;;;;;;1.52;0.82;;;;;;;18.36;100.00;95465.66;1018887;29;20028;-72
2022/06/27 01:45:24;;;;;;;1.65;0.75;;;;;;;18.35;100.00;95470.19;1030448;28;20014;-74
2022/06/27 01:45:54;;;;;;;1.58;1.10;;;;;;;18.34;100.00;95473.16;1030693;28;20018;-72
2022/06/27 01:46:35;;;;;;;1.90;0.85;;;;;;;18.33;100.00;95495.50;1031835;28;20850;-73
2022/06/27 01:47:08;;;;;;;4.25;0.82;;;;;;;18.32;100.00;95544.44;1030352;28;20015;-73
2022/06/27 01:47:38;;;;;;;1.00;0.80;;;;;;;18.26;100.00;95602.25;1018268;29;20019;-73
2022/06/27 01:48:09;;;;;;;1.20;1.10;;;;;;;18.25;100.00;95618.50;1030387;28;20015;-72
2022/06/27 01:48:39;;;;;;;1.65;1.10;;;;;;;18.21;100.00;95614.91;1029656;28;20022;-71
2022/06/27 01:49:11;;;;;;;3.50;1.10;;;;;;;18.17;100.00;95622.72;1034559;28;20056;-73
2022/06/27 01:49:42;;;;;;;2.38;1.20;;;;;;;18.16;100.00;95623.03;1022366;29;20019;-73
2022/06/27 01:50:13;;;;;;;1.50;1.00;;;;;;;18.16;100.00;95617.72;1018640;29;20467;-69
2022/06/27 01:50:44;;;;;;;1.77;1.35;;;;;;;18.21;100.00;95585.69;1034273;28;20022;-73
2022/06/27 01:51:14;;;;;;;1.65;1.10;;;;;;;18.24;100.00;95555.84;1030515;28;20015;-69
2022/06/27 01:51:46;;;;;;;3.97;1.45;;;;;;;18.26;100.00;95540.38;1021842;29;20015;-70
2022/06/27 01:52:17;;;;;;;2.58;1.23;;;;;;;18.24;100.00;95558.50;1022882;28;20031;-69
2022/06/27 01:52:49;;;;;;;1.23;1.00;;;;;;;18.29;100.00;95598.19;1030432;28;20057;-69
2022/06/27 01:53:19;;;;;;;4.03;1.23;;;;;;;18.32;100.00;95616.94;1030281;28;20053;-69
2022/06/27 01:53:51;;;;;;;1.65;1.10;;;;;;;18.33;100.00;95623.81;1030442;28;20034;-70
2022/06/27 01:54:22;;;;;;;2.70;1.10;;;;;;;18.34;100.00;95627.22;1026819;28;20053;-74
2022/06/27 01:54:52;;;;;;;3.63;0.90;;;;;;;18.34;100.00;95621.91;1030722;28;20032;-72
2022/06/27 01:55:24;;;;;;;3.90;0.80;;;;;;;18.35;100.00;95602.25;1034353;28;20029;-72
2022/06/27 01:55:55;;;;;;;4.13;1.13;;;;;;;18.39;100.00;95571.28;1033797;28;20018;-72
2022/06/27 01:56:25;;;;;;;2.20;1.17;;;;;;;18.41;100.00;95563.00;1030413;28;20031;-72
2022/06/27 01:56:56;;;;;;;1.75;1.00;;;;;;;18.42;100.00;95573.31;1033608;28;20025;-75
2022/06/27 01:57:26;;;;;;;2.90;0.95;;;;;;;18.43;100.00;95595.34;1032500;28;20014;-73
2022/06/27 01:57:57;;;;;;;1.25;1.02;;;;;;;18.45;100.00;95601.13;1030609;28;20616;-72
2022/06/27 01:58:27;;;;;;;3.63;1.10;;;;;;;18.46;100.00;95603.47;1037485;28;20009;-70
2022/06/27 01:58:58;;;;;;;7.82;1.20;;;;;;;18.46;100.00;95592.84;1026306;28;20030;-74
2022/06/27 01:59:30;;;;;;;3.10;0.90;;;;;;;18.47;100.00;95585.66;1032054;28;20466;-73
2022/06/27 02:00:01;;;;;;;1.42;0.95;;;;;;;18.50;100.00;95590.34;1030294;28;20410;-72
2022/06/27 02:00:31;;;;;;;1.42;0.98;;;;;;;18.52;100.00;95599.56;1034471;28;20033;-72
2022/06/27 02:01:03;;;;;;;1.65;0.90;;;;;;;18.52;100.00;95588.16;1034606;28;20535;-74
2022/06/27 02:01:33;;;;;;;2.17;1.02;;;;;;;18.53;100.00;95593.13;1030988;28;20041;-71
2022/06/27 02:02:04;;;;;;;2.83;1.30;;;;;;;18.54;100.00;95581.44;1037376;28;20013;-73
2022/06/27 02:02:35;;;;;;;1.00;1.00;;;;;;;18.54;100.00;95580.63;1038297;28;20022;-72
2022/06/27 02:03:05;;;;;;;1.00;0.90;;;;;;;18.56;100.00;95589.84;1035107;28;20057;-71
2022/06/27 02:03:36;;;;;;;1.80;1.25;;;;;;;18.56;100.00;95592.50;1034395;28;20459;-75
2022/06/27 02:04:07;;;;;;;3.03;1.08;;;;;;;18.58;100.00;95589.53;1030270;28;20019;-73
2022/06/27 02:04:37;;;;;;;2.50;1.40;;;;;;;18.63;100.00;95588.59;1026686;28;20019;-76
2022/06/27 02:05:08;;;;;;;3.88;1.70;;;;;;;18.61;100.00;95589.69;1023461;28;20504;-72
2022/06/27 02:05:38;;;;;;;1.92;0.98;;;;;;;18.61;100.00;95595.00;1021429;28;20058;-71
2022/06/27 02:06:09;;;;;;;2.55;1.15;;;;;;;18.62;100.00;95590.47;1033986;28;20101;-72
2022/06/27 02:06:40;;;;;;;1.67;1.42;;;;;;;18.61;100.00;95592.34;1037976;28;20033;-72
2022/06/27 02:07:11;;;;;;;1.20;1.08;;;;;;;18.62;100.00;95598.44;1034289;28;20347;-72
2022/06/27 02:07:41;;;;;;;2.60;1.17;;;;;;;18.63;100.00;95607.19;1030471;28;20073;-71
2022/06/27 02:08:12;;;;;;;2.97;1.17;;;;;;;18.61;100.00;95602.97;1023960;28;20019;-72
2022/06/27 02:08:46;;;;;;;3.17;1.27;;;;;;;18.68;100.00;95604.34;1034468;28;20018;-73
2022/06/27 02:09:16;;;;;;;1.20;1.10;;;;;;;18.70;100.00;95602.16;1033144;28;20473;-73
2022/06/27 02:09:47;;;;;;;3.17;1.00;;;;;;;18.71;100.00;95601.84;1030166;28;20054;-72
2022/06/27 02:10:17;;;;;;;5.05;0.95;;;;;;;18.69;100.00;95605.94;1021975;29;20026;-73
2022/06/27 02:10:48;;;;;;;1.75;0.95;;;;;;;18.69;100.00;95601.38;1022423;28;20550;-72
2022/06/27 02:11:19;;;;;;;1.10;1.00;;;;;;;18.71;100.00;95607.19;1031079;28;20030;-73
2022/06/27 02:11:51;;;;;;;2.88;1.10;;;;;;;18.74;100.00;95600.44;1032987;28;20409;-71
2022/06/27 02:12:23;;;;;;;1.25;1.00;;;;;;;18.74;100.00;95597.78;1027275;28;20035;-73
2022/06/27 02:12:54;;;;;;;1.35;1.00;;;;;;;18.72;100.00;95600.00;1025190;28;20054;-72
2022/06/27 02:13:24;;;;;;;3.65;1.05;;;;;;;18.69;100.00;95592.63;1033917;28;20022;-70
2022/06/27 02:13:55;;;;;;;1.45;1.05;;;;;;;18.74;100.00;95601.22;1032157;28;20537;-73
2022/06/27 02:14:26;;;;;;;2.67;1.00;;;;;;;18.75;100.00;95594.06;1030785;28;20034;-74
2022/06/27 02:14:56;;;;;;;2.75;0.90;;;;;;;18.76;100.00;95591.06;1032568;28;20165;-71
2022/06/27 02:15:27;;;;;;;3.22;1.10;;;;;;;18.77;100.00;95591.84;1031758;28;20498;-75
2022/06/27 02:16:09;;;;;;;2.75;1.10;;;;;;;18.75;100.00;95583.44;1028531;28;20086;-73
2022/06/27 02:16:41;;;;;;;1.27;1.10;;;;;;;18.77;100.00;95591.84;1024177;28;20439;-73
2022/06/27 02:17:11;;;;;;;2.00;1.20;;;;;;;18.76;100.00;95587.63;1022811;29;20693;-73
2022/06/27 02:17:42;;;;;;;2.65;1.30;;;;;;;18.73;100.00;95596.25;1031814;28;20026;-72
2022/06/27 02:18:12;;;;;;;3.35;1.42;;;;;;;18.71;100.00;95585.09;1032107;28;20597;-71
2022/06/27 02:18:43;;;;;;;8.05;1.10;;;;;;;18.70;100.00;95596.84;1034931;28;20026;-68
2022/06/27 02:19:17;;;;;;;1.42;0.80;;;;;;;18.70;100.00;95604.81;1026501;28;20039;-72
2022/06/27 02:19:47;;;;;;;1.48;1.30;;;;;;;18.68;100.00;95610.47;1029928;28;20037;-72
2022/06/27 02:20:18;;;;;;;4.13;1.10;;;;;;;18.70;100.00;95610.13;1018991;29;20034;-72
2022/06/27 02:20:48;;;;;;;3.92;1.20;;;;;;;18.65;100.00;95607.66;1030471;28;20061;-71
2022/06/27 02:21:20;;;;;;;1.90;1.40;;;;;;;18.63;100.00;95605.31;1029758;28;20030;-73
2022/06/27 02:21:51;;;;;;;4.75;1.45;;;;;;;18.59;100.00;95613.13;1028905;28;20177;-74
2022/06/27 02:22:21;;;;;;;1.75;1.13;;;;;;;18.56;100.00;95618.31;1027933;28;20630;-74
2022/06/27 02:22:52;;;;;;;1.50;1.10;;;;;;;18.54;100.00;95610.66;1034571;28;20034;-74
2022/06/27 02:23:22;;;;;;;2.70;1.10;;;;;;;18.54;100.00;95615.16;1023864;28;20031;-73
2022/06/27 02:23:53;;;;;;;1.83;1.10;;;;;;;18.52;100.00;95612.06;1034829;28;20034;-73